Main page
METAR-TAF:

METAR-TAF

Airports :

Nador International Airport

Nador, Morocco

latitude: 34-59-20N, longitude: 003-01-42W, elevation: 175 m

Current weather observation

The report was made 46 minutes ago, at 01:00 UTC
Wind 7 kt from the Southwest, varying between South and West
Temperature 13°C
Humidity 67%
Pressure 1014 hPa
Visibility 10 km or more
Few clouds at a height of 2600 ft
Scattered clouds at a height of 4000 ft

METAR: GMMW 200100Z 23007KT 190V270 9999 FEW026 SCT040 13/07 Q1014 NOSIG

Time: 01:46 (01:46 UTC)

Forecast

The report was made 2 hours and 46 minutes ago, at 23:00 UTC
Forecast valid from 20 at 00 UTC to 21 at 06 UTC
Wind 2 kt from variable directions
Visibility 10 km or more
Few clouds at a height of 2600 ft
Scattered clouds at a height of 4000 ft

TAF: GMMW 192300Z 2000/2106 VRB02KT 9999 FEW026 SCT040

Weather observations and forecasts of more than 4000 airports (METAR and TAF reports).

The available stations are represented by yellow and red dots on the map.

Hover mouse over dot to see the name of the station.

Then click to see weather observations and forecasts.

To change the map : click on the green buttons with a black cross to zoom in, on the green button with a dash to zoom out, or on the green arrows for adjacent maps.


METAR-TAF: